This is the latest recevied weather packets stored in our database for station/object OH2HCY-3. If no packets are shown the sender has not sent any weather packets the latest 1 day(s).
| Time | Temp. | Humidity | Pressure | Rain* | Wind** | Luminosity | Snow |
|---|---|---|---|---|---|---|---|
| 1836274832 | 15° C | 90% | 1008.6 hPa | - | 1.79 m/s, 216° | - | - |
| 1778059516 | 9.44° C | 45% | 1013.7 hPa | - | 1.79 m/s, 190° | - | - |
| 1778058467 | 10° C | - | - | - | 2.24 m/s, 179° | - | - |
| 1778058466 | 10° C | 38% | 1013.5 hPa | - | 2.24 m/s, 179° | - | - |
| 1778057446 | 9.44° C | 38% | 1013.5 hPa | - | 2.24 m/s, 211° | - | - |
| 1778056486 | 8.89° C | 45% | 1013.4 hPa | - | 2.24 m/s, 235° | - | - |
| 1778055487 | 8.89° C | 43% | 1013.5 hPa | - | 2.24 m/s, 187° | - | - |
| 1778055486 | 8.89° C | 43% | 1013.5 hPa | - | 2.24 m/s, 187° | - | - |
| 1778054356 | 8.89° C | 35% | 1013.5 hPa | - | 1.79 m/s, 197° | - | - |
| 1778053281 | 8.89° C | 37% | 1013.3 hPa | - | 2.68 m/s, 217° | - | - |
| 1778051097 | - | - | - | - | 2.24 m/s, 222° | - | - |
| 1778051096 | 8.33° C | 43% | 1013.2 hPa | - | 2.24 m/s, 222° | - | - |
| 1778050030 | 7.78° C | 48% | 1013 hPa | - | 2.24 m/s, 202° | - | - |
| 1778048942 | 7.22° C | 50% | 1013.1 hPa | - | 2.24 m/s, 212° | - | - |
| 1778047791 | 6.67° C | 56% | 1013 hPa | - | 1.79 m/s, 162° | - | - |
| 1778046706 | 6.11° C | 58% | 1012.8 hPa | - | 1.79 m/s, 164° | - | - |
| 1778045660 | 6.11° C | 61% | 1012.6 hPa | - | 1.34 m/s, 216° | - | - |
| 1778044518 | 5° C | - | - | - | 1.34 m/s, 180° | - | - |
| 1778044511 | 5° C | 64% | 1012.5 hPa | - | 1.34 m/s, 180° | - | - |
| 1778043355 | 5° C | 68% | 1012.2 hPa | - | 1.79 m/s, 182° | - | - |
| 1778042285 | 3.89° C | 71% | 1012.1 hPa | - | 1.79 m/s, 182° | - | - |
| 1778041221 | 3.33° C | 74% | 1011.9 hPa | - | 1.34 m/s, 196° | - | - |
| 1778040171 | 2.78° C | 78% | 1011.7 hPa | - | 1.34 m/s, 182° | - | - |
| 1778039122 | 1.67° C | 83% | 1011.7 hPa | - | 0.89 m/s, 112° | - | - |
| 1778038008 | 0° C | - | 1011.5 hPa | - | 0.89 m/s, 127° | - | - |
* Rain since midnight (hover to see other rain measurements)
** Current wind speed in m/s (hover to see current wind gust speed)